Kvitbjoern — LM9158 — position and weather

sailwx.info

Track history (hours):
 
Tides and Currents Weather Stations Pressure Air Temp Water Temp Dewpoint Dewpoint Depression Visibility Wind Speed Wind Dir Waves Ship Positions

Kvitbjoern

Last reported at 2018-Feb-21 14:36 UTC. Time now 2018-Feb-22 01:30 UTC.
Position N 66°22' E 012°21'.

Length 10 m.

Type: Fishing. MMSI: 257454420.

Date/timePositionNaut miles runAvg speedWind from/ knotsBaromVisibWave heightAir tempDewpointWater temp
2018-Feb-21 14:36N 66°22' E 012°21'0 0.0
2018-Feb-21 14:30N 66°22' E 012°21'0 0.0
2018-Feb-21 14:00N 66°22' E 012°21'0 0.0
2018-Feb-21 13:30N 66°22' E 012°21'0 0.0
2018-Feb-21 13:00N 66°22' E 012°21'0 0.0
2018-Feb-21 12:30N 66°22' E 012°21'0 0.0
2018-Feb-21 10:27N 66°22' E 012°21'0 0.0
2018-Feb-21 09:57N 66°22' E 012°21'0 0.0
2018-Feb-21 09:27N 66°22' E 012°21'0 0.0
2018-Feb-21 08:57N 66°22' E 012°21'0 0.0
2018-Feb-20 16:26N 66°22' E 012°21'0 0.0
2018-Feb-20 15:56N 66°22' E 012°21'0 0.0
2018-Feb-20 15:26N 66°22' E 012°21'0 0.0
2018-Feb-20 14:56N 66°22' E 012°21'1 2.6
2018-Feb-20 14:30N 66°23' E 012°24'1 1.6
2018-Feb-20 13:55N 66°23' E 012°26'0 0.6
2018-Feb-20 13:25N 66°23' E 012°27'0 0.2
2018-Feb-20 13:00N 66°23' E 012°27'1 2.1
2018-Feb-20 12:25N 66°22' E 012°27'0 0.5
2018-Feb-20 11:49N 66°22' E 012°27'0 0.3
2018-Feb-20 11:23N 66°22' E 012°27'1 3.2
2018-Feb-20 10:59N 66°23' E 012°25'0 0.6
2018-Feb-20 10:30N 66°23' E 012°24'1 1.6
2018-Feb-20 09:58N 66°23' E 012°24'0 0.5
2018-Feb-20 09:28N 66°24' E 012°24'1 2.6
2018-Feb-20 09:00N 66°23' E 012°26'2 3.4
2018-Feb-20 08:29N 66°22' E 012°24'0 0.5
2018-Feb-20 07:59N 66°22' E 012°24'0 0.7
2018-Feb-20 07:29N 66°22' E 012°24'1 2.5
2018-Feb-20 07:00N 66°22' E 012°21'0 0.0
2018-Feb-19 16:51N 66°22' E 012°21'1 2.5
2018-Feb-19 16:29N 66°22' E 012°23'1 1.2
2018-Feb-19 15:59N 66°22' E 012°24'1 2.1
2018-Feb-19 15:30N 66°22' E 012°27'0 0.3
2018-Feb-19 15:00N 66°22' E 012°27'2 3.7
2018-Feb-19 14:30N 66°24' E 012°25'1 1.0
2018-Feb-19 13:59N 66°24' E 012°23'1 1.9
2018-Feb-19 13:29N 66°23' E 012°24'1 2.8
2018-Feb-19 13:00N 66°22' E 012°21'1 1.3
2018-Feb-19 12:29N 66°22' E 012°23'0 0.3
2018-Feb-19 11:58N 66°22' E 012°22'1 1.1
2018-Feb-19 11:27N 66°22' E 012°21'  
2018-Feb-16 15:26N 66°22' E 012°21'0 0.0
2018-Feb-16 14:56N 66°22' E 012°21'0 0.0
2018-Feb-16 14:26N 66°22' E 012°21'0 0.0
2018-Feb-16 13:56N 66°22' E 012°21'0 0.0
2018-Feb-16 13:26N 66°22' E 012°21'0 0.0
2018-Feb-16 12:56N 66°22' E 012°21'0 0.0
2018-Feb-16 12:26N 66°22' E 012°21'0 0.0
2018-Feb-14 13:54N 66°22' E 012°21'  
Track history (hours):
 
Tides and Currents Weather Stations Pressure Air Temp Water Temp Dewpoint Dewpoint Depression Visibility Wind Speed Wind Dir Waves Ship Positions

Kvitbjoern

Last reported at 2018-Feb-21 14:36 UTC. Time now 2018-Feb-22 01:30 UTC.
Position N 66°22' E 012°21'.

Length 10 m.

Type: Fishing. MMSI: 257454420.

Date/timePositionNaut miles runAvg speedWind from/ knotsBaromVisibWave heightAir tempDewpointWater temp
2018-Feb-21 14:36N 66°22' E 012°21'0 0.0
2018-Feb-21 14:30N 66°22' E 012°21'0 0.0
2018-Feb-21 14:00N 66°22' E 012°21'0 0.0
2018-Feb-21 13:30N 66°22' E 012°21'0 0.0
2018-Feb-21 13:00N 66°22' E 012°21'0 0.0
2018-Feb-21 12:30N 66°22' E 012°21'0 0.0
2018-Feb-21 10:27N 66°22' E 012°21'0 0.0
2018-Feb-21 09:57N 66°22' E 012°21'0 0.0
2018-Feb-21 09:27N 66°22' E 012°21'0 0.0
2018-Feb-21 08:57N 66°22' E 012°21'0 0.0
2018-Feb-20 16:26N 66°22' E 012°21'0 0.0
2018-Feb-20 15:56N 66°22' E 012°21'0 0.0
2018-Feb-20 15:26N 66°22' E 012°21'0 0.0
2018-Feb-20 14:56N 66°22' E 012°21'1 2.6
2018-Feb-20 14:30N 66°23' E 012°24'1 1.6
2018-Feb-20 13:55N 66°23' E 012°26'0 0.6
2018-Feb-20 13:25N 66°23' E 012°27'0 0.2
2018-Feb-20 13:00N 66°23' E 012°27'1 2.1
2018-Feb-20 12:25N 66°22' E 012°27'0 0.5
2018-Feb-20 11:49N 66°22' E 012°27'0 0.3
2018-Feb-20 11:23N 66°22' E 012°27'1 3.2
2018-Feb-20 10:59N 66°23' E 012°25'0 0.6
2018-Feb-20 10:30N 66°23' E 012°24'1 1.6
2018-Feb-20 09:58N 66°23' E 012°24'0 0.5
2018-Feb-20 09:28N 66°24' E 012°24'1 2.6
2018-Feb-20 09:00N 66°23' E 012°26'2 3.4
2018-Feb-20 08:29N 66°22' E 012°24'0 0.5
2018-Feb-20 07:59N 66°22' E 012°24'0 0.7
2018-Feb-20 07:29N 66°22' E 012°24'1 2.5
2018-Feb-20 07:00N 66°22' E 012°21'0 0.0
2018-Feb-19 16:51N 66°22' E 012°21'1 2.5
2018-Feb-19 16:29N 66°22' E 012°23'1 1.2
2018-Feb-19 15:59N 66°22' E 012°24'1 2.1
2018-Feb-19 15:30N 66°22' E 012°27'0 0.3
2018-Feb-19 15:00N 66°22' E 012°27'2 3.7
2018-Feb-19 14:30N 66°24' E 012°25'1 1.0
2018-Feb-19 13:59N 66°24' E 012°23'1 1.9
2018-Feb-19 13:29N 66°23' E 012°24'1 2.8
2018-Feb-19 13:00N 66°22' E 012°21'1 1.3
2018-Feb-19 12:29N 66°22' E 012°23'0 0.3
2018-Feb-19 11:58N 66°22' E 012°22'1 1.1
2018-Feb-19 11:27N 66°22' E 012°21'  
2018-Feb-16 15:26N 66°22' E 012°21'0 0.0
2018-Feb-16 14:56N 66°22' E 012°21'0 0.0
2018-Feb-16 14:26N 66°22' E 012°21'0 0.0
2018-Feb-16 13:56N 66°22' E 012°21'0 0.0
2018-Feb-16 13:26N 66°22' E 012°21'0 0.0
2018-Feb-16 12:56N 66°22' E 012°21'0 0.0
2018-Feb-16 12:26N 66°22' E 012°21'0 0.0
2018-Feb-14 13:54N 66°22' E 012°21'  

Dump ship's entire track history